sensor_id;sensor_type;location;lat;lon;timestamp;pressure;altitude;pressure_sealevel;temperature;humidity
37202;BME280;37799;52.390;6.136;2023-05-01T00:01:03;101845.44;;;9.63;100.00
37202;BME280;37799;52.390;6.136;2023-05-01T00:03:32;101844.63;;;9.58;100.00
37202;BME280;37799;52.390;6.136;2023-05-01T00:06:01;101846.38;;;9.53;100.00
37202;BME280;37799;52.390;6.136;2023-05-01T00:08:27;101844.72;;;9.41;100.00
37202;BME280;37799;52.390;6.136;2023-05-01T00:10:52;101839.50;;;9.45;100.00
37202;BME280;37799;52.390;6.136;2023-05-01T00:13:18;101843.03;;;9.34;100.00
37202;BME280;37799;52.390;6.136;2023-05-01T00:15:46;101842.22;;;9.26;100.00
37202;BME280;37799;52.390;6.136;2023-05-01T00:18:12;101831.94;;;9.12;100.00
37202;BME280;37799;52.390;6.136;2023-05-01T00:20:37;101831.94;;;9.07;100.00
37202;BME280;37799;52.390;6.136;2023-05-01T00:23:03;101825.09;;;8.96;100.00
37202;BME280;37799;52.390;6.136;2023-05-01T00:25:28;101825.94;;;8.95;100.00
37202;BME280;37799;52.390;6.136;2023-05-01T00:27:53;101827.72;;;8.88;100.00
37202;BME280;37799;52.390;6.136;2023-05-01T00:30:19;101826.84;;;8.84;100.00
37202;BME280;37799;52.390;6.136;2023-05-01T00:32:44;101814.84;;;8.74;100.00
37202;BME280;37799;52.390;6.136;2023-05-01T00:35:09;101814.00;;;8.62;100.00
37202;BME280;37799;52.390;6.136;2023-05-01T00:37:35;101814.91;;;8.50;100.00
37202;BME280;37799;52.390;6.136;2023-05-01T00:40:00;101808.03;;;8.38;100.00
37202;BME280;37799;52.390;6.136;2023-05-01T00:42:25;101807.16;;;8.38;100.00
37202;BME280;37799;52.390;6.136;2023-05-01T00:44:51;101802.84;;;8.24;100.00
37202;BME280;37799;52.390;6.136;2023-05-01T00:47:16;101803.69;;;8.17;100.00
37202;BME280;37799;52.390;6.136;2023-05-01T00:49:42;101797.69;;;8.05;100.00
37202;BME280;37799;52.390;6.136;2023-05-01T00:52:08;101792.53;;;8.00;100.00
37202;BME280;37799;52.390;6.136;2023-05-01T00:54:35;101792.56;;;7.95;100.00
37202;BME280;37799;52.390;6.136;2023-05-01T00:57:01;101782.22;;;7.88;100.00
37202;BME280;37799;52.390;6.136;2023-05-01T00:59:26;101781.38;;;7.83;100.00
37202;BME280;37799;52.390;6.136;2023-05-01T01:01:51;101775.31;;;7.81;100.00
37202;BME280;37799;52.390;6.136;2023-05-01T01:04:17;101774.47;;;7.74;100.00
37202;BME280;37799;52.390;6.136;2023-05-01T01:06:57;101770.19;;;7.72;100.00
37202;BME280;37799;52.390;6.136;2023-05-01T01:14:39;101767.56;;;7.53;100.00
37202;BME280;37799;52.390;6.136;2023-05-01T01:17:16;101761.56;;;7.48;100.00
37202;BME280;37799;52.390;6.136;2023-05-01T01:22:26;101750.38;;;7.29;100.00
37202;BME280;37799;52.390;6.136;2023-05-01T01:25:59;101747.75;;;7.19;100.00
37202;BME280;37799;52.390;6.136;2023-05-01T01:31:19;101752.78;;;6.88;100.00
37202;BME280;37799;52.390;6.136;2023-05-01T01:33:59;101752.75;;;6.76;100.00
37202;BME280;37799;52.390;6.136;2023-05-01T01:36:38;101737.28;;;6.70;100.00
37202;BME280;37799;52.390;6.136;2023-05-01T01:41:33;101733.78;;;6.53;100.00
37202;BME280;37799;52.390;6.136;2023-05-01T01:46:36;101729.47;;;6.50;100.00
37202;BME280;37799;52.390;6.136;2023-05-01T01:49:05;101729.50;;;6.59;100.00
37202;BME280;37799;52.390;6.136;2023-05-01T01:51:33;101725.22;;;6.61;100.00
37202;BME280;37799;52.390;6.136;2023-05-01T01:54:01;101719.28;;;6.71;100.00
37202;BME280;37799;52.390;6.136;2023-05-01T01:56:28;101714.13;;;6.71;100.00
37202;BME280;37799;52.390;6.136;2023-05-01T01:58:55;101707.28;;;6.75;100.00
37202;BME280;37799;52.390;6.136;2023-05-01T02:01:22;101705.53;;;6.71;100.00
37202;BME280;37799;52.390;6.136;2023-05-01T02:03:49;101704.72;;;6.78;100.00
37202;BME280;37799;52.390;6.136;2023-05-01T02:06:16;101697.88;;;6.80;100.00
37202;BME280;37799;52.390;6.136;2023-05-01T02:08:43;101698.72;;;6.79;100.00
37202;BME280;37799;52.390;6.136;2023-05-01T02:11:12;101697.00;;;6.81;100.00
37202;BME280;37799;52.390;6.136;2023-05-01T02:13:39;101685.84;;;6.82;100.00
37202;BME280;37799;52.390;6.136;2023-05-01T02:16:05;101690.16;;;6.83;100.00
37202;BME280;37799;52.390;6.136;2023-05-01T02:18:32;101685.84;;;6.82;100.00
37202;BME280;37799;52.390;6.136;2023-05-01T02:20:59;101677.25;;;6.77;100.00
37202;BME280;37799;52.390;6.136;2023-05-01T02:23:26;101678.97;;;6.76;100.00
37202;BME280;37799;52.390;6.136;2023-05-01T02:25:53;101672.09;;;6.74;100.00
37202;BME280;37799;52.390;6.136;2023-05-01T02:28:22;101665.22;;;6.67;100.00
37202;BME280;37799;52.390;6.136;2023-05-01T02:30:48;101665.19;;;6.62;100.00
37202;BME280;37799;52.390;6.136;2023-05-01T02:33:13;101659.19;;;6.62;100.00
37202;BME280;37799;52.390;6.136;2023-05-01T02:35:40;101654.91;;;6.64;100.00
37202;BME280;37799;52.390;6.136;2023-05-01T02:38:06;101654.06;;;6.66;100.00
37202;BME280;37799;52.390;6.136;2023-05-01T02:40:32;101644.63;;;6.68;100.00
37202;BME280;37799;52.390;6.136;2023-05-01T02:42:59;101641.19;;;6.65;100.00
37202;BME280;37799;52.390;6.136;2023-05-01T02:45:28;101642.06;;;6.71;100.00
37202;BME280;37799;52.390;6.136;2023-05-01T02:47:56;101636.09;;;6.80;100.00
37202;BME280;37799;52.390;6.136;2023-05-01T02:50:24;101634.34;;;6.74;100.00
37202;BME280;37799;52.390;6.136;2023-05-01T02:52:50;101636.91;;;6.76;100.00
37202;BME280;37799;52.390;6.136;2023-05-01T02:55:16;101630.06;;;6.70;100.00
37202;BME280;37799;52.390;6.136;2023-05-01T02:57:42;101622.28;;;6.63;100.00
37202;BME280;37799;52.390;6.136;2023-05-01T03:00:08;101617.16;;;6.57;100.00
37202;BME280;37799;52.390;6.136;2023-05-01T03:02:34;101619.72;;;6.54;100.00
37202;BME280;37799;52.390;6.136;2023-05-01T03:04:59;101615.38;;;6.46;100.00
37202;BME280;37799;52.390;6.136;2023-05-01T03:07:25;101611.06;;;6.36;100.00
37202;BME280;37799;52.390;6.136;2023-05-01T03:09:50;101617.06;;;6.32;100.00
37202;BME280;37799;52.390;6.136;2023-05-01T03:12:15;101611.00;;;6.22;100.00
37202;BME280;37799;52.390;6.136;2023-05-01T03:14:41;101613.53;;;6.12;100.00
37202;BME280;37799;52.390;6.136;2023-05-01T03:17:06;101611.81;;;6.08;100.00
37202;BME280;37799;52.390;6.136;2023-05-01T03:19:32;101601.50;;;6.06;100.00
37202;BME280;37799;52.390;6.136;2023-05-01T03:21:58;101603.22;;;6.00;100.00
37202;BME280;37799;52.390;6.136;2023-05-01T03:24:24;101596.34;;;6.02;100.00
37202;BME280;37799;52.390;6.136;2023-05-01T03:26:49;101592.88;;;5.95;100.00
37202;BME280;37799;52.390;6.136;2023-05-01T03:29:14;101596.31;;;5.93;100.00
37202;BME280;37799;52.390;6.136;2023-05-01T03:31:40;101585.16;;;5.90;100.00
37202;BME280;37799;52.390;6.136;2023-05-01T03:34:05;101589.44;;;5.90;100.00
37202;BME280;37799;52.390;6.136;2023-05-01T03:36:31;101588.50;;;5.85;100.00
37202;BME280;37799;52.390;6.136;2023-05-01T03:38:58;101586.78;;;5.85;100.00
37202;BME280;37799;52.390;6.136;2023-05-01T03:41:23;101584.25;;;5.87;100.00
37202;BME280;37799;52.390;6.136;2023-05-01T03:43:49;101578.16;;;5.73;100.00
37202;BME280;37799;52.390;6.136;2023-05-01T03:46:14;101581.56;;;5.69;100.00
37202;BME280;37799;52.390;6.136;2023-05-01T03:48:39;101580.72;;;5.68;100.00
37202;BME280;37799;52.390;6.136;2023-05-01T03:51:05;101579.00;;;5.70;100.00
37202;BME280;37799;52.390;6.136;2023-05-01T03:53:30;101573.84;;;5.70;100.00
37202;BME280;37799;52.390;6.136;2023-05-01T03:55:56;101573.84;;;5.64;100.00
37202;BME280;37799;52.390;6.136;2023-05-01T03:58:23;101573.78;;;5.58;100.00
37202;BME280;37799;52.390;6.136;2023-05-01T04:00:48;101572.06;;;5.57;100.00
37202;BME280;37799;52.390;6.136;2023-05-01T04:03:14;101577.19;;;5.55;100.00
37202;BME280;37799;52.390;6.136;2023-05-01T04:05:40;101566.97;;;5.60;100.00
37202;BME280;37799;52.390;6.136;2023-05-01T04:08:05;101568.72;;;5.70;100.00
37202;BME280;37799;52.390;6.136;2023-05-01T04:10:31;101573.00;;;5.73;100.00
37202;BME280;37799;52.390;6.136;2023-05-01T04:12:56;101567.00;;;5.66;100.00
37202;BME280;37799;52.390;6.136;2023-05-01T04:15:21;101566.09;;;5.59;100.00
37202;BME280;37799;52.390;6.136;2023-05-01T04:17:47;101561.84;;;5.66;100.00
37202;BME280;37799;52.390;6.136;2023-05-01T04:20:12;101560.16;;;5.70;100.00
37202;BME280;37799;52.390;6.136;2023-05-01T04:22:38;101557.59;;;5.71;100.00
37202;BME280;37799;52.390;6.136;2023-05-01T04:25:03;101560.16;;;5.70;100.00
37202;BME280;37799;52.390;6.136;2023-05-01T04:27:29;101561.84;;;5.66;100.00
37202;BME280;37799;52.390;6.136;2023-05-01T04:29:54;101550.72;;;5.66;100.00
37202;BME280;37799;52.390;6.136;2023-05-01T04:32:19;101551.59;;;5.69;100.00
37202;BME280;37799;52.390;6.136;2023-05-01T04:34:45;101549.06;;;5.75;100.00
37202;BME280;37799;52.390;6.136;2023-05-01T04:37:11;101551.69;;;5.87;100.00
37202;BME280;37799;52.390;6.136;2023-05-01T04:39:36;101550.00;;;5.88;100.00
37202;BME280;37799;52.390;6.136;2023-05-01T04:42:02;101550.03;;;5.96;100.00
37202;BME280;37799;52.390;6.136;2023-05-01T04:44:28;101545.81;;;6.08;100.00
37202;BME280;37799;52.390;6.136;2023-05-01T04:46:54;101539.84;;;6.20;100.00
37202;BME280;37799;52.390;6.136;2023-05-01T04:49:22;101530.47;;;6.33;100.00
37202;BME280;37799;52.390;6.136;2023-05-01T04:51:47;101545.94;;;6.49;100.00
37202;BME280;37799;52.390;6.136;2023-05-01T04:54:13;101543.38;;;6.62;100.00
37202;BME280;37799;52.390;6.136;2023-05-01T04:56:38;101551.13;;;6.71;100.00
37202;BME280;37799;52.390;6.136;2023-05-01T04:59:03;101552.00;;;6.79;100.00
37202;BME280;37799;52.390;6.136;2023-05-01T05:01:29;101551.13;;;6.88;100.00
37202;BME280;37799;52.390;6.136;2023-05-01T05:03:54;101546.84;;;6.97;100.00
37202;BME280;37799;52.390;6.136;2023-05-01T05:06:19;101551.13;;;7.10;100.00
37202;BME280;37799;52.390;6.136;2023-05-01T05:08:45;101545.97;;;7.27;100.00
37202;BME280;37799;52.390;6.136;2023-05-01T05:11:11;101550.28;;;7.33;100.00
37202;BME280;37799;52.390;6.136;2023-05-01T05:13:36;101545.97;;;7.47;100.00
37202;BME280;37799;52.390;6.136;2023-05-01T05:16:01;101546.75;;;7.66;100.00
37202;BME280;37799;52.390;6.136;2023-05-01T05:18:27;101551.88;;;7.78;100.00
37202;BME280;37799;52.390;6.136;2023-05-01T05:20:52;101545.84;;;7.88;100.00
37202;BME280;37799;52.390;6.136;2023-05-01T05:23:18;101554.41;;;7.98;100.00
37202;BME280;37799;52.390;6.136;2023-05-01T05:25:43;101548.34;;;8.07;100.00
37202;BME280;37799;52.390;6.136;2023-05-01T05:28:08;101553.50;;;8.11;100.00
37202;BME280;37799;52.390;6.136;2023-05-01T05:30:33;101550.03;;;8.15;100.00
37202;BME280;37799;52.390;6.136;2023-05-01T05:32:59;101547.44;;;8.21;100.00
37202;BME280;37799;52.390;6.136;2023-05-01T05:35:24;101549.13;;;8.25;100.00
37202;BME280;37799;52.390;6.136;2023-05-01T05:37:51;101537.06;;;8.27;100.00
37202;BME280;37799;52.390;6.136;2023-05-01T05:40:16;101543.91;;;8.33;100.00
37202;BME280;37799;52.390;6.136;2023-05-01T05:42:43;101544.81;;;8.37;100.00
37202;BME280;37799;52.390;6.136;2023-05-01T05:45:08;101545.59;;;8.45;100.00
37202;BME280;37799;52.390;6.136;2023-05-01T05:47:34;101543.81;;;8.56;100.00
37202;BME280;37799;52.390;6.136;2023-05-01T05:49:59;101541.22;;;8.62;100.00
37202;BME280;37799;52.390;6.136;2023-05-01T05:52:25;101543.78;;;8.64;100.00
37202;BME280;37799;52.390;6.136;2023-05-01T05:54:50;101540.25;;;8.72;100.00
37202;BME280;37799;52.390;6.136;2023-05-01T05:57:15;101543.63;;;8.82;100.00
37202;BME280;37799;52.390;6.136;2023-05-01T05:59:41;101544.47;;;8.87;100.00
37202;BME280;37799;52.390;6.136;2023-05-01T06:02:06;101541.88;;;8.89;100.00
37202;BME280;37799;52.390;6.136;2023-05-01T06:04:32;101542.63;;;9.01;100.00
37202;BME280;37799;52.390;6.136;2023-05-01T06:06:57;101548.66;;;9.03;100.00
37202;BME280;37799;52.390;6.136;2023-05-01T06:09:23;101545.09;;;9.15;100.00
37202;BME280;37799;52.390;6.136;2023-05-01T06:11:48;101537.34;;;9.15;100.00
37202;BME280;37799;52.390;6.136;2023-05-01T06:14:14;101541.56;;;9.22;100.00
37202;BME280;37799;52.390;6.136;2023-05-01T06:16:39;101540.53;;;9.41;100.00
37202;BME280;37799;52.390;6.136;2023-05-01T06:19:05;101538.72;;;9.51;100.00
37202;BME280;37799;52.390;6.136;2023-05-01T06:21:30;101539.50;;;9.59;100.00
37202;BME280;37799;52.390;6.136;2023-05-01T06:23:56;101524.75;;;9.69;100.00
37202;BME280;37799;52.390;6.136;2023-05-01T06:26:22;101528.09;;;9.77;100.00
37202;BME280;37799;52.390;6.136;2023-05-01T06:28:47;101528.75;;;9.94;100.00
37202;BME280;37799;52.390;6.136;2023-05-01T06:31:13;101523.44;;;10.05;100.00
37202;BME280;37799;52.390;6.136;2023-05-01T06:33:38;101531.09;;;10.16;100.00
37202;BME280;37799;52.390;6.136;2023-05-01T06:36:04;101526.72;;;10.19;100.00
37202;BME280;37799;52.390;6.136;2023-05-01T06:38:29;101527.63;;;10.14;100.00
37202;BME280;37799;52.390;6.136;2023-05-01T06:40:56;101529.34;;;10.15;100.00
37202;BME280;37799;52.390;6.136;2023-05-01T06:43:22;101537.94;;;10.18;100.00
37202;BME280;37799;52.390;6.136;2023-05-01T06:45:47;101533.72;;;10.10;100.00
37202;BME280;37799;52.390;6.136;2023-05-01T06:48:13;101518.97;;;10.18;100.00
37202;BME280;37799;52.390;6.136;2023-05-01T06:50:38;101527.53;;;10.24;100.00
37202;BME280;37799;52.390;6.136;2023-05-01T06:53:03;101530.91;;;10.28;100.00
37202;BME280;37799;52.390;6.136;2023-05-01T06:55:28;101528.19;;;10.39;100.00
37202;BME280;37799;52.390;6.136;2023-05-01T06:57:56;101528.81;;;10.54;100.00
37202;BME280;37799;52.390;6.136;2023-05-01T07:00:22;101532.09;;;10.69;100.00
37202;BME280;37799;52.390;6.136;2023-05-01T07:02:47;101525.84;;;10.82;100.00
37202;BME280;37799;52.390;6.136;2023-05-01T07:05:13;101529.88;;;10.98;100.00
37202;BME280;37799;52.390;6.136;2023-05-01T07:07:38;101528.84;;;11.08;100.00
37202;BME280;37799;52.390;6.136;2023-05-01T07:10:04;101524.44;;;11.13;100.00
37202;BME280;37799;52.390;6.136;2023-05-01T07:12:30;101522.56;;;11.21;100.00
37202;BME280;37799;52.390;6.136;2023-05-01T07:14:55;101522.94;;;11.48;100.00
37202;BME280;37799;52.390;6.136;2023-05-01T07:17:21;101519.03;;;11.72;100.00
37202;BME280;37799;52.390;6.136;2023-05-01T07:19:46;101517.91;;;11.87;100.00
37202;BME280;37799;52.390;6.136;2023-05-01T07:22:12;101521.31;;;11.89;100.00
37202;BME280;37799;52.390;6.136;2023-05-01T07:24:37;101518.78;;;11.86;100.00
37202;BME280;37799;52.390;6.136;2023-05-01T07:27:03;101516.19;;;11.86;100.00
37202;BME280;37799;52.390;6.136;2023-05-01T07:29:28;101519.47;;;11.94;100.00
37202;BME280;37799;52.390;6.136;2023-05-01T07:31:54;101524.22;;;12.15;100.00
37202;BME280;37799;52.390;6.136;2023-05-01T07:34:19;101522.28;;;12.23;100.00
37202;BME280;37799;52.390;6.136;2023-05-01T07:36:45;101520.19;;;12.40;100.00
37202;BME280;37799;52.390;6.136;2023-05-01T07:39:10;101524.19;;;12.55;100.00
37202;BME280;37799;52.390;6.136;2023-05-01T07:41:36;101531.56;;;12.72;100.00
37202;BME280;37799;52.390;6.136;2023-05-01T07:44:02;101535.47;;;12.91;100.00
37202;BME280;37799;52.390;6.136;2023-05-01T07:46:27;101533.31;;;13.07;100.00
37202;BME280;37799;52.390;6.136;2023-05-01T07:48:53;101536.53;;;13.18;100.00
37202;BME280;37799;52.390;6.136;2023-05-01T07:51:19;101536.66;;;13.12;100.00
37202;BME280;37799;52.390;6.136;2023-05-01T07:53:44;101525.69;;;13.35;100.00
37202;BME280;37799;52.390;6.136;2023-05-01T07:56:11;101524.53;;;13.47;100.00
37202;BME280;37799;52.390;6.136;2023-05-01T07:58:36;101536.78;;;13.74;100.00
37202;BME280;37799;52.390;6.136;2023-05-01T08:01:02;101519.75;;;13.92;100.00
37202;BME280;37799;52.390;6.136;2023-05-01T08:03:31;101520.94;;;14.11;100.00
37202;BME280;37799;52.390;6.136;2023-05-01T08:05:57;101524.00;;;14.26;100.00
37202;BME280;37799;52.390;6.136;2023-05-01T08:08:23;101532.13;;;14.44;100.00
37202;BME280;37799;52.390;6.136;2023-05-01T08:10:48;101530.81;;;14.59;100.00
37202;BME280;37799;52.390;6.136;2023-05-01T08:13:14;101524.19;;;14.75;100.00
37202;BME280;37799;52.390;6.136;2023-05-01T08:15:40;101526.25;;;14.92;100.00
37202;BME280;37799;52.390;6.136;2023-05-01T08:18:07;101532.47;;;15.15;100.00
37202;BME280;37799;52.390;6.136;2023-05-01T08:20:32;101533.44;;;15.62;100.00
37202;BME280;37799;52.390;6.136;2023-05-01T08:22:59;101530.19;;;16.04;100.00
37202;BME280;37799;52.390;6.136;2023-05-01T08:25:24;101534.97;;;16.60;100.00
37202;BME280;37799;52.390;6.136;2023-05-01T08:27:50;101530.25;;;17.12;99.86
37202;BME280;37799;52.390;6.136;2023-05-01T08:30:15;101528.50;;;17.73;98.39
37202;BME280;37799;52.390;6.136;2023-05-01T08:32:41;101526.66;;;18.13;92.42
37202;BME280;37799;52.390;6.136;2023-05-01T08:35:06;101527.00;;;18.43;84.48
37202;BME280;37799;52.390;6.136;2023-05-01T08:37:31;101529.41;;;18.28;84.49
37202;BME280;37799;52.390;6.136;2023-05-01T08:39:57;101519.44;;;18.73;84.13
37202;BME280;37799;52.390;6.136;2023-05-01T08:42:22;101527.03;;;19.13;79.24
37202;BME280;37799;52.390;6.136;2023-05-01T08:44:48;101522.78;;;19.28;74.93
37202;BME280;37799;52.390;6.136;2023-05-01T08:47:16;101524.28;;;19.50;72.63
37202;BME280;37799;52.390;6.136;2023-05-01T08:49:43;101524.81;;;19.89;66.43
37202;BME280;37799;52.390;6.136;2023-05-01T08:52:13;101523.53;;;20.45;65.83
37202;BME280;37799;52.390;6.136;2023-05-01T08:54:42;101526.16;;;20.45;62.34
37202;BME280;37799;52.390;6.136;2023-05-01T08:57:09;101531.91;;;20.52;61.49
37202;BME280;37799;52.390;6.136;2023-05-01T08:59:36;101527.25;;;20.10;60.30
37202;BME280;37799;52.390;6.136;2023-05-01T09:02:05;101524.41;;;19.31;68.31
37202;BME280;37799;52.390;6.136;2023-05-01T09:04:38;101525.03;;;19.01;68.33
37202;BME280;37799;52.390;6.136;2023-05-01T09:07:05;101525.00;;;19.36;65.60
37202;BME280;37799;52.390;6.136;2023-05-01T09:09:31;101517.19;;;19.69;66.04
37202;BME280;37799;52.390;6.136;2023-05-01T09:12:33;101520.41;;;19.90;61.22
37202;BME280;37799;52.390;6.136;2023-05-01T09:14:52;101524.22;;;20.49;59.65
37202;BME280;37799;52.390;6.136;2023-05-01T09:17:19;101528.34;;;20.99;59.13
37202;BME280;37799;52.390;6.136;2023-05-01T09:19:45;101528.97;;;21.62;57.56
37202;BME280;37799;52.390;6.136;2023-05-01T09:22:11;101530.22;;;22.26;52.31
37202;BME280;37799;52.390;6.136;2023-05-01T09:24:36;101538.72;;;22.85;49.64
37202;BME280;37799;52.390;6.136;2023-05-01T09:27:01;101529.56;;;22.23;49.15
37202;BME280;37799;52.390;6.136;2023-05-01T09:29:44;101531.56;;;22.73;45.94
37202;BME280;37799;52.390;6.136;2023-05-01T09:32:23;101529.75;;;23.01;45.20
37202;BME280;37799;52.390;6.136;2023-05-01T09:34:53;101523.75;;;22.99;45.75
37202;BME280;37799;52.390;6.136;2023-05-01T09:40:10;101530.22;;;22.80;47.04
37202;BME280;37799;52.390;6.136;2023-05-01T09:42:49;101520.38;;;22.97;45.40
37202;BME280;37799;52.390;6.136;2023-05-01T09:45:16;101516.38;;;23.42;45.87
37202;BME280;37799;52.390;6.136;2023-05-01T09:47:43;101517.88;;;23.84;41.83
37202;BME280;37799;52.390;6.136;2023-05-01T09:50:11;101523.22;;;23.82;42.87
37202;BME280;37799;52.390;6.136;2023-05-01T09:52:52;101516.78;;;23.99;39.69
37202;BME280;37799;52.390;6.136;2023-05-01T09:55:18;101519.69;;;24.07;39.97
37202;BME280;37799;52.390;6.136;2023-05-01T09:57:44;101514.47;;;24.19;40.40
37202;BME280;37799;52.390;6.136;2023-05-01T10:00:14;101512.78;;;23.81;42.35
37202;BME280;37799;52.390;6.136;2023-05-01T10:02:42;101516.59;;;23.77;42.19
37202;BME280;37799;52.390;6.136;2023-05-01T10:05:09;101512.75;;;23.55;41.35
37202;BME280;37799;52.390;6.136;2023-05-01T10:07:35;101508.78;;;23.75;40.01
37202;BME280;37799;52.390;6.136;2023-05-01T10:10:20;101517.00;;;23.96;39.91
37202;BME280;37799;52.390;6.136;2023-05-01T10:12:46;101510.13;;;24.18;38.70
37202;BME280;37799;52.390;6.136;2023-05-01T10:15:11;101508.25;;;24.07;38.67
37202;BME280;37799;52.390;6.136;2023-05-01T10:17:38;101503.69;;;23.85;40.56
37202;BME280;37799;52.390;6.136;2023-05-01T10:20:05;101504.31;;;23.50;43.20
37202;BME280;37799;52.390;6.136;2023-05-01T10:22:31;101506.00;;;23.26;43.92
37202;BME280;37799;52.390;6.136;2023-05-01T10:24:56;101505.38;;;22.70;45.33
37202;BME280;37799;52.390;6.136;2023-05-01T10:27:24;101501.84;;;22.57;43.87
37202;BME280;37799;52.390;6.136;2023-05-01T10:29:51;101496.16;;;21.95;47.72
37202;BME280;37799;52.390;6.136;2023-05-01T10:32:20;101503.66;;;21.15;52.35
37202;BME280;37799;52.390;6.136;2023-05-01T10:34:53;101507.47;;;20.50;55.58
37202;BME280;37799;52.390;6.136;2023-05-01T10:37:30;101506.19;;;20.57;57.49
37202;BME280;37799;52.390;6.136;2023-05-01T10:39:58;101501.59;;;20.29;59.54
37202;BME280;37799;52.390;6.136;2023-05-01T10:42:24;101504.41;;;20.10;60.04
37202;BME280;37799;52.390;6.136;2023-05-01T10:44:50;101501.13;;;20.07;57.62
37202;BME280;37799;52.390;6.136;2023-05-01T10:50:13;101505.13;;;19.65;61.11
37202;BME280;37799;52.390;6.136;2023-05-01T10:55:37;101500.41;;;19.54;64.15
37202;BME280;37799;52.390;6.136;2023-05-01T10:58:03;101509.59;;;19.63;62.77
37202;BME280;37799;52.390;6.136;2023-05-01T11:00:29;101511.84;;;19.70;56.51
37202;BME280;37799;52.390;6.136;2023-05-01T11:08:29;101508.94;;;19.25;58.63
37202;BME280;37799;52.390;6.136;2023-05-01T11:10:55;101514.59;;;19.34;58.79
37202;BME280;37799;52.390;6.136;2023-05-01T11:13:56;101509.47;;;19.49;58.78
37202;BME280;37799;52.390;6.136;2023-05-01T11:19:06;101502.94;;;19.73;55.90
37202;BME280;37799;52.390;6.136;2023-05-01T11:21:33;101500.94;;;20.10;52.25
37202;BME280;37799;52.390;6.136;2023-05-01T11:23:59;101505.34;;;20.25;52.26
37202;BME280;37799;52.390;6.136;2023-05-01T11:26:27;101504.66;;;20.37;51.35
37202;BME280;37799;52.390;6.136;2023-05-01T11:28:53;101502.13;;;20.97;48.52
37202;BME280;37799;52.390;6.136;2023-05-01T11:31:20;101507.03;;;21.17;49.46
37202;BME280;37799;52.390;6.136;2023-05-01T11:33:46;101503.69;;;21.72;45.60
37202;BME280;37799;52.390;6.136;2023-05-01T11:36:11;101499.44;;;21.98;45.49
37202;BME280;37799;52.390;6.136;2023-05-01T11:38:48;101501.69;;;22.19;46.04
37202;BME280;37799;52.390;6.136;2023-05-01T11:41:13;101503.25;;;22.35;43.82
37202;BME280;37799;52.390;6.136;2023-05-01T11:44:01;101503.53;;;22.58;41.86
37202;BME280;37799;52.390;6.136;2023-05-01T11:46:29;101501.63;;;22.87;43.18
37202;BME280;37799;52.390;6.136;2023-05-01T11:48:59;101510.13;;;23.55;43.56
37202;BME280;37799;52.390;6.136;2023-05-01T11:51:26;101500.25;;;23.96;38.59
37202;BME280;37799;52.390;6.136;2023-05-01T11:54:02;101502.97;;;24.07;40.08
37202;BME280;37799;52.390;6.136;2023-05-01T11:56:29;101499.78;;;24.15;40.95
37202;BME280;37799;52.390;6.136;2023-05-01T11:58:56;101503.94;;;24.42;37.27
37202;BME280;37799;52.390;6.136;2023-05-01T12:01:32;101506.09;;;24.73;38.35
37202;BME280;37799;52.390;6.136;2023-05-01T12:03:57;101498.81;;;24.52;38.75
37202;BME280;37799;52.390;6.136;2023-05-01T12:06:37;101502.28;;;24.29;38.63
37202;BME280;37799;52.390;6.136;2023-05-01T12:09:05;101502.13;;;24.43;36.31
37202;BME280;37799;52.390;6.136;2023-05-01T12:11:32;101493.41;;;24.17;35.99
37202;BME280;37799;52.390;6.136;2023-05-01T12:13:57;101491.78;;;24.03;39.59
37202;BME280;37799;52.390;6.136;2023-05-01T12:16:23;101491.06;;;24.25;38.02
37202;BME280;37799;52.390;6.136;2023-05-01T12:18:49;101488.06;;;24.06;38.49
37202;BME280;37799;52.390;6.136;2023-05-01T12:21:15;101487.91;;;24.20;36.93
37202;BME280;37799;52.390;6.136;2023-05-01T12:23:43;101493.28;;;23.82;39.31
37202;BME280;37799;52.390;6.136;2023-05-01T12:26:17;101500.31;;;23.83;37.53
37202;BME280;37799;52.390;6.136;2023-05-01T12:29:05;101499.94;;;24.00;40.91
37202;BME280;37799;52.390;6.136;2023-05-01T12:31:32;101500.72;;;24.50;40.45
37202;BME280;37799;52.390;6.136;2023-05-01T12:34:05;101501.13;;;23.96;39.27
37202;BME280;37799;52.390;6.136;2023-05-01T12:36:32;101494.75;;;23.99;42.06
37202;BME280;37799;52.390;6.136;2023-05-01T12:41:47;101500.09;;;24.23;40.81
37202;BME280;37799;52.390;6.136;2023-05-01T12:44:23;101492.16;;;23.86;38.96
37202;BME280;37799;52.390;6.136;2023-05-01T12:46:58;101493.53;;;23.79;39.05
37202;BME280;37799;52.390;6.136;2023-05-01T12:49:24;101491.41;;;23.84;38.47
37202;BME280;37799;52.390;6.136;2023-05-01T12:51:55;101495.22;;;23.67;41.15
37202;BME280;37799;52.390;6.136;2023-05-01T12:54:26;101497.25;;;23.38;39.81
37202;BME280;37799;52.390;6.136;2023-05-01T12:56:52;101492.38;;;23.07;42.70
37202;BME280;37799;52.390;6.136;2023-05-01T12:59:26;101482.84;;;22.91;42.16
37202;BME280;37799;52.390;6.136;2023-05-01T13:02:02;101477.69;;;23.28;42.57
37202;BME280;37799;52.390;6.136;2023-05-01T13:04:28;101479.56;;;23.51;42.17
37202;BME280;37799;52.390;6.136;2023-05-01T13:06:54;101484.66;;;23.16;42.00
37202;BME280;37799;52.390;6.136;2023-05-01T13:09:24;101474.53;;;23.23;43.28
37202;BME280;37799;52.390;6.136;2023-05-01T13:12:04;101470.63;;;22.76;42.84
37202;BME280;37799;52.390;6.136;2023-05-01T13:14:38;101469.97;;;22.60;44.16
37202;BME280;37799;52.390;6.136;2023-05-01T13:17:11;101472.69;;;22.85;46.12
37202;BME280;37799;52.390;6.136;2023-05-01T13:19:37;101469.63;;;22.91;48.91
37202;BME280;37799;52.390;6.136;2023-05-01T13:22:06;101467.56;;;23.22;42.85
37202;BME280;37799;52.390;6.136;2023-05-01T13:24:38;101468.28;;;23.49;41.77